createdAt,value
2018-02-24T00:00:03.254Z,1.69
2018-02-24T00:01:13.364Z,1.76
2018-02-24T00:02:23.417Z,1.69
2018-02-24T00:03:33.462Z,1.68
2018-02-24T00:04:43.264Z,1.61
2018-02-24T00:05:53.065Z,1.68
2018-02-24T00:07:03.129Z,1.57
2018-02-24T00:08:14.587Z,1.54
2018-02-24T00:09:24.394Z,1.48
2018-02-24T00:10:33.917Z,1.4
2018-02-24T00:11:43.974Z,1.46
2018-02-24T00:12:54.030Z,1.53
2018-02-24T00:14:04.075Z,1.53
2018-02-24T00:15:14.125Z,1.6
2018-02-24T00:16:23.908Z,1.65
2018-02-24T00:17:33.970Z,1.51
2018-02-24T00:18:43.771Z,1.65
2018-02-24T00:19:53.567Z,1.65
2018-02-24T00:21:03.364Z,1.57
2018-02-24T00:22:13.150Z,1.51
2018-02-24T00:23:22.930Z,1.56
2018-02-24T00:24:32.735Z,1.61
2018-02-24T00:25:42.526Z,1.48
2018-02-24T00:26:52.583Z,1.35
2018-02-24T00:28:02.362Z,1.35
2018-02-24T00:29:11.879Z,1.33
2018-02-24T00:30:21.667Z,1.29
2018-02-24T00:31:31.465Z,1.32
2018-02-24T00:32:41.250Z,1.36
2018-02-24T00:33:51.307Z,1.42
2018-02-24T00:35:00.826Z,1.44
2018-02-24T00:36:10.621Z,1.48
2018-02-24T00:37:20.145Z,1.46
2018-02-24T00:38:29.934Z,1.4
2018-02-24T00:39:39.473Z,1.4
2018-02-24T00:40:49.553Z,1.48
2018-02-24T00:41:59.378Z,1.42
2018-02-24T00:43:09.427Z,1.44
2018-02-24T00:44:18.947Z,1.42
2018-02-24T00:45:28.750Z,1.42
2018-02-24T00:46:38.539Z,1.39
2018-02-24T00:47:48.076Z,1.47
2018-02-24T00:48:58.144Z,1.39
2018-02-24T00:50:07.950Z,1.35
2018-02-24T00:51:18.015Z,1.35
2018-02-24T00:52:28.062Z,1.32
2018-02-24T00:53:38.172Z,1.18
2018-02-24T00:54:47.974Z,1.22
2018-02-24T00:55:58.017Z,1.2
2018-02-24T00:57:07.554Z,1.04
2018-02-24T00:58:17.348Z,1
2018-02-24T00:59:27.136Z,0.94
2018-02-24T01:00:37.188Z,0.86
2018-02-24T01:01:47.242Z,0.78
2018-02-24T01:02:57.277Z,0.67
2018-02-24T01:04:07.332Z,0.66
2018-02-24T01:05:17.120Z,0.64
2018-02-24T01:06:27.166Z,0.61
2018-02-24T01:07:36.956Z,0.52
2018-02-24T01:08:47.002Z,0.47
2018-02-24T01:09:57.052Z,0.44
2018-02-24T01:11:06.888Z,0.44
2018-02-24T01:12:16.927Z,0.39
2018-02-24T01:13:27.006Z,0.37
2018-02-24T01:14:36.547Z,0.31
2018-02-24T01:15:46.564Z,0.31
2018-02-24T01:16:56.358Z,0.24
2018-02-24T01:18:05.894Z,0.2
2018-02-24T01:19:15.938Z,0.27
2018-02-24T01:20:25.977Z,0.24
2018-02-24T01:21:36.765Z,0.14
2018-02-24T01:22:46.544Z,0.1
2018-02-24T01:23:56.335Z,-0.01
2018-02-24T01:25:06.129Z,-0.04
2018-02-24T01:26:16.187Z,0.08
2018-02-24T01:27:26.217Z,0.01
2018-02-24T01:28:36.277Z,-0.01
2018-02-24T01:29:46.067Z,-0.1
2018-02-24T01:30:55.856Z,-0.04
2018-02-24T01:32:05.891Z,-0.22
2018-02-24T01:33:16.028Z,-0.09
2018-02-24T01:34:26.082Z,-0.23
2018-02-24T01:35:35.863Z,-0.2
2018-02-24T01:36:45.662Z,-0.16
2018-02-24T01:37:54.915Z,-0.2
2018-02-24T01:39:04.441Z,-0.25
2018-02-24T01:40:13.751Z,-0.2
2018-02-24T01:41:23.528Z,-0.25
2018-02-24T01:42:33.632Z,-0.23
2018-02-24T01:43:43.688Z,-0.36
2018-02-24T01:44:53.467Z,-0.38
2018-02-24T01:46:03.246Z,-0.22
2018-02-24T01:47:13.317Z,-0.27
2018-02-24T01:48:23.116Z,-0.3
2018-02-24T01:49:32.656Z,-0.31
2018-02-24T01:50:43.250Z,-0.3
2018-02-24T01:51:53.308Z,-0.34
2018-02-24T01:53:03.101Z,-0.28
2018-02-24T01:54:13.154Z,-0.31
2018-02-24T01:55:23.210Z,-0.28
2018-02-24T01:56:33.263Z,-0.37
2018-02-24T01:57:43.058Z,-0.37
2018-02-24T01:58:53.142Z,-0.4
2018-02-24T02:00:02.926Z,-0.38
2018-02-24T02:01:12.740Z,-0.41
2018-02-24T02:02:22.519Z,-0.45
2018-02-24T02:03:32.314Z,-0.48
2018-02-24T02:04:42.372Z,-0.46
2018-02-24T02:05:52.180Z,-0.48
2018-02-24T02:07:01.703Z,-0.43
2018-02-24T02:08:11.753Z,-0.49
2018-02-24T02:09:21.611Z,-0.51
2018-02-24T02:10:31.405Z,-0.54
2018-02-24T02:11:41.213Z,-0.59
2018-02-24T02:12:51.319Z,-0.62
2018-02-24T02:14:01.353Z,-0.64
2018-02-24T02:15:10.919Z,-0.64
2018-02-24T02:16:20.696Z,-0.64
2018-02-24T02:17:30.474Z,-0.64
2018-02-24T02:18:40.252Z,-0.64
2018-02-24T02:19:50.323Z,-0.64
2018-02-24T02:21:00.123Z,-0.62
2018-02-24T02:22:10.213Z,-0.61
2018-02-24T02:23:20.254Z,-0.66
2018-02-24T02:24:29.797Z,-0.66
2018-02-24T02:25:39.598Z,-0.67
2018-02-24T02:26:49.109Z,-0.61
2018-02-24T02:27:58.905Z,-0.62
2018-02-24T02:29:08.702Z,-0.66
2018-02-24T02:30:18.754Z,-0.56
2018-02-24T02:31:28.536Z,-0.76
2018-02-24T02:32:38.658Z,-0.56
2018-02-24T02:33:48.724Z,-0.64
2018-02-24T02:34:58.783Z,-0.62
2018-02-24T02:36:08.861Z,-0.66
2018-02-24T02:37:18.408Z,-0.59
2018-02-24T02:38:28.460Z,-0.62
2018-02-24T02:39:38.523Z,-0.67
2018-02-24T02:40:48.579Z,-0.7
2018-02-24T02:41:58.648Z,-0.77
2018-02-24T02:43:08.718Z,-0.67
2018-02-24T02:44:18.514Z,-0.74
2018-02-24T02:45:28.042Z,-0.79
2018-02-24T02:46:38.109Z,-0.76
2018-02-24T02:47:47.922Z,-0.79
2018-02-24T02:48:57.991Z,-0.82
2018-02-24T02:50:08.035Z,-0.7
2018-02-24T02:51:17.558Z,-0.76
2018-02-24T02:52:27.617Z,-0.72
2018-02-24T02:53:37.679Z,-0.87
2018-02-24T02:54:47.487Z,-0.72
2018-02-24T02:55:57.276Z,-0.77
2018-02-24T02:57:07.322Z,-0.74
2018-02-24T02:58:17.121Z,-0.8
2018-02-24T02:59:27.188Z,-0.87
2018-02-24T03:00:36.994Z,-0.89
2018-02-24T03:01:46.782Z,-0.84
2018-02-24T03:02:56.320Z,-0.95
2018-02-24T03:04:06.374Z,-0.87
2018-02-24T03:05:16.452Z,-0.92
2018-02-24T03:37:32.735Z,-3.94
2018-02-24T03:38:42.257Z,-3.97
2018-02-24T03:39:52.308Z,-3.93
2018-02-24T03:41:02.348Z,-3.82
2018-02-24T03:42:12.125Z,-3.69
2018-02-24T03:43:22.173Z,-3.76
2018-02-24T03:44:31.690Z,-3.56
2018-02-24T03:45:41.718Z,-3.4
2018-02-24T03:46:51.746Z,-3.33
2018-02-24T03:48:01.534Z,-3.17
2018-02-24T03:49:11.039Z,-2.97
2018-02-24T03:50:21.088Z,-2.78
2018-02-24T03:51:30.886Z,-2.64
2018-02-24T03:52:40.916Z,-2.6
2018-02-24T03:53:50.969Z,-2.46
2018-02-24T03:55:00.803Z,-2.36
2018-02-24T03:56:10.582Z,-2.23
2018-02-24T03:57:20.625Z,-2.06
2018-02-24T03:58:30.171Z,-2.06
2018-02-24T03:59:39.959Z,-1.94
2018-02-24T04:00:49.784Z,-1.99
2018-02-24T04:01:59.567Z,-1.81
2018-02-24T04:03:09.621Z,-1.81
2018-02-24T04:04:19.667Z,-1.71
2018-02-24T04:05:29.769Z,-1.68
2018-02-24T04:06:39.650Z,-1.68
2018-02-24T04:07:49.446Z,-1.56
2018-02-24T04:08:59.511Z,-1.64
2018-02-24T04:10:09.535Z,-1.68
2018-02-24T04:11:19.338Z,-1.55
2018-02-24T04:12:29.187Z,-1.56
2018-02-24T04:13:39.226Z,-1.61
2018-02-24T04:14:49.290Z,-1.55
2018-02-24T04:15:59.085Z,-1.58
2018-02-24T04:17:09.134Z,-1.53
2018-02-24T04:18:18.657Z,-1.5
2018-02-24T04:19:28.468Z,-1.48
2018-02-24T04:20:38.249Z,-1.43
2018-02-24T04:21:48.279Z,-1.46
2018-02-24T04:22:58.069Z,-1.48
2018-02-24T04:24:08.106Z,-1.48
2018-02-24T04:25:18.157Z,-1.48
2018-02-24T04:26:27.947Z,-1.52
2018-02-24T04:27:37.457Z,-1.42
2018-02-24T04:28:47.519Z,-1.52
2018-02-24T04:29:57.375Z,-1.5
2018-02-24T04:31:07.412Z,-1.5
2018-02-24T04:32:17.458Z,-1.48
2018-02-24T04:33:27.545Z,-1.5
2018-02-24T04:34:37.342Z,-1.55
2018-02-24T04:35:47.434Z,-1.52
2018-02-24T04:36:57.483Z,-1.53
2018-02-24T04:38:07.524Z,-1.55
2018-02-24T04:39:17.574Z,-1.55
2018-02-24T04:40:27.359Z,-1.53
2018-02-24T04:41:37.148Z,-1.56
2018-02-24T04:42:47.235Z,-1.58
2018-02-24T04:43:57.011Z,-1.52
2018-02-24T04:45:06.805Z,-1.56
2018-02-24T04:46:16.600Z,-1.58
2018-02-24T04:47:26.661Z,-1.58
2018-02-24T04:48:36.712Z,-1.55
2018-02-24T04:49:46.495Z,-1.52
2018-02-24T04:50:56.277Z,-1.55
2018-02-24T04:52:06.070Z,-1.53
2018-02-24T04:53:16.120Z,-1.61
2018-02-24T04:54:26.165Z,-1.63
2018-02-24T04:55:35.693Z,-1.6
2018-02-24T04:56:45.476Z,-1.71
2018-02-24T04:57:55.256Z,-1.61
2018-02-24T04:59:05.369Z,-1.64
2018-02-24T05:00:15.152Z,-1.63
2018-02-24T05:01:24.956Z,-1.63
2018-02-24T05:02:34.749Z,-1.71
2018-02-24T05:03:44.541Z,-1.71
2018-02-24T05:04:54.583Z,-1.71
2018-02-24T05:06:04.617Z,-1.73
2018-02-24T05:07:14.670Z,-1.68
2018-02-24T05:08:24.723Z,-1.68
2018-02-24T05:09:34.778Z,-1.7
2018-02-24T05:10:44.831Z,-1.64
2018-02-24T05:11:54.899Z,-1.71
2018-02-24T05:13:04.691Z,-1.78
2018-02-24T05:14:14.201Z,-1.68
2018-02-24T05:15:24.258Z,-1.7
2018-02-24T05:16:34.025Z,-1.64
2018-02-24T05:17:44.113Z,-1.63
2018-02-24T05:18:53.635Z,-1.68
2018-02-24T05:20:03.685Z,-1.68
2018-02-24T05:21:12.960Z,-1.73
2018-02-24T05:22:22.746Z,-1.79
2018-02-24T05:23:32.534Z,-1.76
2018-02-24T05:24:42.596Z,-1.76
2018-02-24T05:25:52.117Z,-1.74
2018-02-24T05:27:01.635Z,-1.74
2018-02-24T05:28:11.422Z,-1.74
2018-02-24T05:29:21.209Z,-1.79
2018-02-24T05:30:30.991Z,-1.78
2018-02-24T05:31:41.068Z,-1.71
2018-02-24T05:32:50.594Z,-1.66
2018-02-24T05:34:00.165Z,-1.71
2018-02-24T05:35:10.212Z,-1.7
2018-02-24T05:36:20.015Z,-1.79
2018-02-24T05:37:30.062Z,-1.74
2018-02-24T05:38:39.584Z,-1.68
2018-02-24T05:39:49.416Z,-1.74
2018-02-24T05:40:59.451Z,-1.74
2018-02-24T05:42:09.245Z,-1.73
2018-02-24T05:43:19.281Z,-1.67
2018-02-24T05:44:29.062Z,-1.78
2018-02-24T05:45:38.602Z,-1.76
2018-02-24T05:46:48.375Z,-1.76
2018-02-24T05:47:58.168Z,-1.74
2018-02-24T05:49:08.227Z,-1.7
2018-02-24T05:50:18.005Z,-1.73
2018-02-24T05:51:28.046Z,-1.68
2018-02-24T05:52:37.559Z,-1.7
2018-02-24T05:53:47.368Z,-1.71
2018-02-24T05:54:57.468Z,-1.79
2018-02-24T05:56:07.266Z,-1.66
2018-02-24T05:57:17.065Z,-1.64
2018-02-24T05:58:27.114Z,-1.71
2018-02-24T05:59:37.199Z,-1.73
2018-02-24T06:00:46.967Z,-1.68
2018-02-24T06:01:56.778Z,-1.68
2018-02-24T06:03:06.817Z,-1.7
2018-02-24T06:04:16.856Z,-1.73
2018-02-24T06:05:26.628Z,-1.63
2018-02-24T06:06:36.682Z,-1.64
2018-02-24T06:07:46.719Z,-1.61
2018-02-24T06:08:56.513Z,-1.6
2018-02-24T06:10:05.775Z,-1.56
2018-02-24T06:11:15.828Z,-1.49
2018-02-24T06:12:25.891Z,-1.48
2018-02-24T06:13:35.669Z,-1.43
2018-02-24T06:14:45.714Z,-1.46
2018-02-24T06:15:55.574Z,-1.43
2018-02-24T06:17:05.613Z,-1.38
2018-02-24T06:18:15.673Z,-1.34
2018-02-24T06:19:25.466Z,-1.32
2018-02-24T06:20:35.556Z,-1.35
2018-02-24T06:21:45.349Z,-1.27
2018-02-24T06:22:55.148Z,-1.32
2018-02-24T06:24:04.932Z,-1.28
2018-02-24T06:25:14.472Z,-1.25
2018-02-24T06:26:24.028Z,-1.3
2018-02-24T06:27:34.734Z,-1.27
2018-02-24T06:28:44.804Z,-1.21
2018-02-24T06:29:54.056Z,-1.24
2018-02-24T06:31:03.843Z,-1.19
2018-02-24T06:32:13.630Z,-1.21
2018-02-24T06:33:23.706Z,-1.11
2018-02-24T06:34:33.752Z,-1.04
2018-02-24T06:35:43.541Z,-1.07
2018-02-24T06:36:53.599Z,-1.07
2018-02-24T06:38:03.643Z,-1.03
2018-02-24T06:39:12.909Z,-0.92
2018-02-24T06:40:22.437Z,-0.91
2018-02-24T06:41:32.243Z,-0.87
2018-02-24T06:42:42.065Z,-0.91
2018-02-24T06:43:51.328Z,-0.89
2018-02-24T06:45:01.385Z,-0.84
2018-02-24T06:46:11.160Z,-0.87
2018-02-24T06:47:20.688Z,-0.8
2018-02-24T06:48:30.740Z,-0.74
2018-02-24T06:49:40.264Z,-0.7
2018-02-24T06:50:50.044Z,-0.69
2018-02-24T06:51:59.849Z,-0.61
2018-02-24T06:53:09.927Z,-0.58
2018-02-24T06:54:19.201Z,-0.62
2018-02-24T06:55:29.000Z,-0.67
2018-02-24T06:56:38.781Z,-0.58
2018-02-24T06:57:48.568Z,-0.49
2018-02-24T06:58:58.369Z,-0.48
2018-02-24T07:00:08.423Z,-0.45
2018-02-24T07:01:18.218Z,-0.38
2018-02-24T07:02:28.020Z,-0.41
2018-02-24T07:03:37.287Z,-0.3
2018-02-24T07:04:47.091Z,-0.3
2018-02-24T07:05:57.155Z,-0.34
2018-02-24T07:07:07.207Z,-0.27
2018-02-24T07:08:17.273Z,-0.18
2018-02-24T07:09:27.066Z,-0.2
2018-02-24T07:10:36.863Z,-0.27
2018-02-24T07:11:46.383Z,-0.19
2018-02-24T07:12:55.970Z,-0.15
2018-02-24T07:14:06.064Z,-0.25
2018-02-24T07:15:15.860Z,-0.07
2018-02-24T07:16:25.921Z,0.03
2018-02-24T07:17:35.452Z,0.02
2018-02-24T07:18:45.522Z,0.03
2018-02-24T07:19:55.052Z,0.08
2018-02-24T07:21:04.867Z,0.13
2018-02-24T07:22:14.919Z,0.14
2018-02-24T07:23:24.720Z,0.23
2018-02-24T07:24:34.779Z,0.28
2018-02-24T07:25:44.574Z,0.31
2018-02-24T07:26:54.367Z,0.32
2018-02-24T07:28:04.448Z,0.32
2018-02-24T07:29:14.251Z,0.31
2018-02-24T07:30:24.039Z,0.37
2018-02-24T07:31:34.122Z,0.39
2018-02-24T07:32:43.916Z,0.48
2018-02-24T07:33:53.700Z,0.5
2018-02-24T07:35:03.499Z,0.53
2018-02-24T07:36:13.621Z,0.57
2018-02-24T07:37:23.407Z,0.63
2018-02-24T07:38:33.484Z,0.57
2018-02-24T07:39:43.277Z,0.75
2018-02-24T07:40:53.068Z,0.79
2018-02-24T07:42:02.872Z,0.84
2018-02-24T07:43:12.406Z,0.86
2018-02-24T07:44:22.462Z,0.85
2018-02-24T07:45:32.626Z,0.9
2018-02-24T07:46:42.677Z,0.94
2018-02-24T07:47:52.482Z,0.92
2018-02-24T07:49:02.530Z,0.97
2018-02-24T07:50:12.308Z,1.03
2018-02-24T07:51:22.402Z,1.03
2018-02-24T07:52:32.184Z,1.03
2018-02-24T07:53:42.248Z,1.12
2018-02-24T07:54:52.299Z,1.18
2018-02-24T07:56:03.263Z,1.11
2018-02-24T07:57:13.080Z,1.21
2018-02-24T07:58:22.863Z,1.21
2018-02-24T07:59:33.026Z,1.17
2018-02-24T08:00:42.826Z,1.28
2018-02-24T08:01:52.887Z,1.29
2018-02-24T08:03:02.426Z,1.38
2018-02-24T08:04:11.954Z,1.46
2018-02-24T08:05:22.017Z,1.5
2018-02-24T08:06:33.095Z,1.6
2018-02-24T08:07:43.149Z,1.65
2018-02-24T08:08:53.237Z,1.68
2018-02-24T08:10:03.032Z,1.69
2018-02-24T08:11:13.099Z,1.64
2018-02-24T08:12:23.151Z,1.72
2018-02-24T08:13:32.938Z,1.86
2018-02-24T08:14:42.255Z,1.75
2018-02-24T08:15:52.067Z,1.84
2018-02-24T08:17:01.648Z,1.84
2018-02-24T08:18:12.697Z,1.89
2018-02-24T08:19:22.791Z,1.97
2018-02-24T08:20:32.873Z,2.05
2018-02-24T08:21:43.108Z,2.09
2018-02-24T08:22:52.633Z,2.12
2018-02-24T08:24:02.437Z,2.18
2018-02-24T08:25:12.218Z,2.24
2018-02-24T08:26:21.747Z,2.22
2018-02-24T08:27:31.813Z,2.18
2018-02-24T08:28:41.614Z,2.2
2018-02-24T08:29:51.659Z,2.18
2018-02-24T08:31:01.446Z,2.26
2018-02-24T08:32:10.716Z,2.33
2018-02-24T08:33:20.500Z,2.38
2018-02-24T08:34:30.292Z,2.47
2018-02-24T08:35:40.081Z,2.48
2018-02-24T08:36:49.892Z,2.65
2018-02-24T08:37:59.420Z,2.67
2018-02-24T08:39:09.242Z,2.8
2018-02-24T08:40:19.284Z,2.76
2018-02-24T08:41:29.360Z,2.73
2018-02-24T08:42:39.229Z,2.8
2018-02-24T08:43:48.772Z,2.91
2018-02-24T08:44:58.595Z,2.77
2018-02-24T08:46:08.392Z,2.87
2018-02-24T08:47:18.241Z,2.93
2018-02-24T08:48:28.030Z,2.91
2018-02-24T08:49:37.948Z,2.96
2018-02-24T08:50:47.791Z,3.13
2018-02-24T08:51:57.889Z,3.14
2018-02-24T08:53:07.957Z,3.11
2018-02-24T08:54:17.767Z,3.11
2018-02-24T08:55:27.642Z,3.19
2018-02-24T08:56:37.466Z,3.34
2018-02-24T08:57:47.562Z,3.32
2018-02-24T08:58:57.636Z,3.32
2018-02-24T09:00:07.461Z,3.34
2018-02-24T09:01:17.644Z,3.32
2018-02-24T09:02:27.574Z,3.3
2018-02-24T09:03:37.660Z,3.3
2018-02-24T09:04:47.755Z,3.3
2018-02-24T09:05:57.396Z,3.27
2018-02-24T09:07:07.498Z,3.42
2018-02-24T09:08:17.403Z,3.6
2018-02-24T09:09:27.232Z,3.53
2018-02-24T09:10:37.314Z,3.66
2018-02-24T09:11:47.395Z,3.64
2018-02-24T09:12:57.243Z,3.67
2018-02-24T09:14:08.271Z,3.81
2018-02-24T09:15:18.331Z,3.85
2018-02-24T09:16:28.134Z,3.92
2018-02-24T09:17:37.939Z,3.92
2018-02-24T09:18:48.006Z,3.82
2018-02-24T09:19:57.811Z,3.9
2018-02-24T09:21:07.870Z,3.86
2018-02-24T09:22:17.676Z,3.93
2018-02-24T09:23:27.488Z,3.89
2018-02-24T09:24:37.314Z,3.97
2018-02-24T09:25:47.104Z,4.02
2018-02-24T09:26:56.920Z,4.11
2018-02-24T09:28:07.004Z,4.12
2018-02-24T09:29:17.062Z,4.12
2018-02-24T09:30:26.870Z,4.1
2018-02-24T09:31:36.932Z,4.22
2018-02-24T09:32:46.478Z,4.2
2018-02-24T09:33:56.282Z,4.15
2018-02-24T09:35:06.343Z,4.28
2018-02-24T09:36:16.147Z,4.26
2018-02-24T09:37:25.957Z,4.32
2018-02-24T09:38:35.499Z,4.39
2018-02-24T09:39:45.121Z,4.33
2018-02-24T09:40:54.950Z,4.4
2018-02-24T09:42:04.218Z,4.51
2018-02-24T09:43:14.044Z,4.39
2018-02-24T09:44:23.867Z,4.56
2018-02-24T09:45:33.718Z,4.46
2018-02-24T09:46:43.541Z,4.46
2018-02-24T09:47:53.332Z,4.39
2018-02-24T09:49:03.141Z,4.47
2018-02-24T09:50:13.210Z,4.44
2018-02-24T09:51:23.279Z,4.54
2018-02-24T09:52:34.822Z,4.66
2018-02-24T09:53:44.880Z,4.79
2018-02-24T09:54:54.971Z,4.78
2018-02-24T09:56:05.049Z,4.78
2018-02-24T09:57:14.842Z,4.83
2018-02-24T09:58:24.938Z,4.87
2018-02-24T09:59:35.012Z,5.03
2018-02-24T10:00:45.108Z,4.94
2018-02-24T10:01:55.224Z,5
2018-02-24T10:03:05.308Z,5.03
2018-02-24T10:04:15.398Z,5.06
2018-02-24T10:05:25.489Z,5.03
2018-02-24T10:06:35.585Z,5.1
2018-02-24T10:07:45.454Z,5.03
2018-02-24T10:08:55.593Z,5.05
2018-02-24T10:10:05.395Z,5.05
2018-02-24T10:11:14.983Z,5.03
2018-02-24T10:12:24.936Z,5.23
2018-02-24T10:13:35.045Z,5.18
2018-02-24T10:14:45.216Z,5.28
2018-02-24T10:15:55.040Z,5.33
2018-02-24T10:17:05.159Z,5.31
2018-02-24T10:18:15.238Z,5.36
2018-02-24T10:19:24.799Z,5.37
2018-02-24T10:20:34.373Z,5.41
2018-02-24T10:21:44.943Z,5.45
2018-02-24T10:22:54.329Z,5.48
2018-02-24T10:24:04.222Z,5.49
2018-02-24T10:25:14.036Z,5.41
2018-02-24T10:26:24.132Z,5.48
2018-02-24T10:27:34.224Z,5.42
2018-02-24T10:28:44.363Z,5.44
2018-02-24T10:29:54.418Z,5.52
2018-02-24T10:31:03.988Z,5.48
2018-02-24T10:32:13.819Z,5.64
2018-02-24T10:33:23.886Z,5.62
2018-02-24T10:34:33.992Z,5.54
2018-02-24T10:35:43.540Z,5.55
2018-02-24T10:36:53.661Z,5.59
2018-02-24T10:38:03.490Z,5.55
2018-02-24T10:39:13.046Z,5.62
2018-02-24T10:40:22.890Z,5.67
2018-02-24T10:41:32.944Z,5.82
2018-02-24T10:42:43.018Z,5.81
2018-02-24T10:43:52.312Z,5.99
2018-02-24T10:45:01.855Z,5.96
2018-02-24T10:46:11.157Z,6
2018-02-24T10:47:21.213Z,5.88
2018-02-24T10:48:31.048Z,5.95
2018-02-24T10:49:41.247Z,6.14
2018-02-24T10:50:50.819Z,6.14
2018-02-24T10:52:00.351Z,6.1
2018-02-24T10:53:10.160Z,6.15
2018-02-24T10:54:20.248Z,6.05
2018-02-24T10:55:30.049Z,6.05
2018-02-24T10:56:40.153Z,6.07
2018-02-24T10:57:49.732Z,6.2
2018-02-24T10:58:59.815Z,6.09
2018-02-24T11:00:09.914Z,6.14
2018-02-24T11:01:20.288Z,6.18
2018-02-24T11:02:30.388Z,6.1
2018-02-24T11:03:40.472Z,6.07
2018-02-24T11:04:50.560Z,6.02
2018-02-24T11:06:02.270Z,6.13
2018-02-24T11:07:12.159Z,6.15
2018-02-24T11:08:21.991Z,6.02
2018-02-24T11:09:32.040Z,6.15
2018-02-24T11:10:41.594Z,6.13
2018-02-24T11:11:51.407Z,6.1
2018-02-24T11:13:01.478Z,6.02
2018-02-24T11:14:11.570Z,5.99
2018-02-24T11:15:22.607Z,6.17
2018-02-24T11:16:32.665Z,6.18
2018-02-24T11:17:42.199Z,6.21
2018-02-24T11:18:52.357Z,6.39
2018-02-24T11:20:01.914Z,6.28
2018-02-24T11:21:11.443Z,6.24
2018-02-24T11:22:21.243Z,6.29
2018-02-24T11:23:30.631Z,6.37
2018-02-24T11:24:40.472Z,6.36
2018-02-24T11:25:50.300Z,6.34
2018-02-24T11:26:59.832Z,6.49
2018-02-24T11:28:09.627Z,6.43
2018-02-24T11:29:19.423Z,6.43
2018-02-24T11:30:28.957Z,6.39
2018-02-24T11:31:38.752Z,6.47
2018-02-24T11:32:48.282Z,6.49
2018-02-24T11:33:58.089Z,6.47
2018-02-24T11:35:08.198Z,6.44
2018-02-24T11:36:17.776Z,6.44
2018-02-24T11:37:27.836Z,6.46
2018-02-24T11:38:37.668Z,6.54
2018-02-24T11:39:47.484Z,6.49
2018-02-24T11:40:57.559Z,6.49
2018-02-24T11:42:07.352Z,6.49
2018-02-24T11:43:17.407Z,6.55
2018-02-24T11:44:26.943Z,6.55
2018-02-24T11:45:36.735Z,6.54
2018-02-24T11:46:46.870Z,6.58
2018-02-24T11:47:56.671Z,6.6
2018-02-24T11:49:06.743Z,6.7
2018-02-24T11:50:16.619Z,6.7
2018-02-24T11:51:26.412Z,6.79
2018-02-24T11:52:36.211Z,6.79
2018-02-24T11:53:46.580Z,6.73
2018-02-24T11:54:56.647Z,6.83
2018-02-24T11:56:06.193Z,6.73
2018-02-24T11:57:15.730Z,6.72
2018-02-24T11:58:25.258Z,6.76
2018-02-24T11:59:35.085Z,6.7
2018-02-24T12:00:44.609Z,6.76
2018-02-24T12:01:54.402Z,6.82
2018-02-24T12:03:04.200Z,6.78
2018-02-24T12:04:14.246Z,6.83
2018-02-24T12:05:23.773Z,6.91
2018-02-24T12:06:33.573Z,6.91
2018-02-24T12:07:43.171Z,7.04
2018-02-24T12:08:53.234Z,7.11
2018-02-24T12:10:03.296Z,7.08
2018-02-24T12:11:13.360Z,7.13
2018-02-24T12:12:22.906Z,6.95
2018-02-24T12:13:32.433Z,7.11
2018-02-24T12:14:43.379Z,7.21
2018-02-24T12:15:53.484Z,7.26
2018-02-24T12:17:03.287Z,7.29
2018-02-24T12:18:12.812Z,7.33
2018-02-24T12:19:22.949Z,7.47
2018-02-24T12:20:32.746Z,7.56
2018-02-24T12:21:42.554Z,7.63
2018-02-24T12:22:52.611Z,7.85
2018-02-24T12:24:02.161Z,7.92
2018-02-24T12:25:12.210Z,8.14
2018-02-24T12:26:22.325Z,8.31
2018-02-24T12:27:32.452Z,8.36
2018-02-24T12:28:42.275Z,8.49
2018-02-24T12:29:52.346Z,8.46
2018-02-24T12:31:01.343Z,8.86
2018-02-24T12:32:11.420Z,9.2
2018-02-24T12:33:21.016Z,9.21
2018-02-24T12:34:30.303Z,9.53
2018-02-24T12:35:40.104Z,9.24
2018-02-24T12:36:50.161Z,9.14
2018-02-24T12:37:59.971Z,8.9
2018-02-24T12:39:09.512Z,8.85
2018-02-24T12:40:19.583Z,8.79
2018-02-24T12:41:29.640Z,9.09
2018-02-24T12:42:39.434Z,8.69
2018-02-24T12:43:49.490Z,8.5
2018-02-24T12:44:59.001Z,8.26
2018-02-24T12:46:09.068Z,8.01
2018-02-24T12:47:19.135Z,7.82
2018-02-24T12:48:29.222Z,7.8
2018-02-24T12:49:39.368Z,7.77
2018-02-24T12:50:49.381Z,7.83
2018-02-24T12:51:59.468Z,7.88
2018-02-24T12:53:09.525Z,7.88
2018-02-24T12:54:19.319Z,7.88
2018-02-24T12:55:29.381Z,7.85
2018-02-24T12:56:39.235Z,7.78
2018-02-24T12:57:48.768Z,7.7
2018-02-24T12:58:58.867Z,7.56
2018-02-24T13:00:08.705Z,7.56
2018-02-24T13:01:18.520Z,7.34
2018-02-24T13:02:28.669Z,7.33
2018-02-24T13:03:38.503Z,7.21
2018-02-24T13:04:48.328Z,7.16
2018-02-24T13:05:57.626Z,7.08
2018-02-24T13:07:07.438Z,7.15
2018-02-24T13:08:17.504Z,7.45
2018-02-24T13:09:27.575Z,7.63
2018-02-24T13:10:37.457Z,7.61
2018-02-24T13:11:47.290Z,7.64
2018-02-24T13:12:57.374Z,7.73
2018-02-24T13:14:07.533Z,7.74
2018-02-24T13:15:17.343Z,7.77
2018-02-24T13:16:27.419Z,7.74
2018-02-24T13:17:37.515Z,7.67
2018-02-24T13:18:47.584Z,7.61
2018-02-24T13:19:57.702Z,7.68
2018-02-24T13:21:07.579Z,7.85
2018-02-24T13:22:17.429Z,7.74
2018-02-24T13:24:54.408Z,7.96
2018-02-24T13:26:04.487Z,8.13
2018-02-24T13:27:14.044Z,8.07
2018-02-24T13:28:23.598Z,8.07
2018-02-24T13:29:33.698Z,7.91
2018-02-24T13:30:43.541Z,7.83
2018-02-24T13:31:53.629Z,7.78
2018-02-24T13:33:03.727Z,7.56
2018-02-24T13:34:13.539Z,7.36
2018-02-24T13:35:23.360Z,7.15
2018-02-24T13:36:32.943Z,7.05
2018-02-24T13:37:56.509Z,7
2018-02-24T13:39:06.654Z,6.79
2018-02-24T13:40:16.763Z,6.78
2018-02-24T13:41:26.921Z,6.79
2018-02-24T13:42:37.086Z,6.98
